createdAt,value
2022-12-05T00:02:09.303Z,1000.3
2022-12-05T00:05:14.636Z,1000.4
2022-12-05T00:07:42.987Z,1000.4
2022-12-05T00:10:11.122Z,1000.5
2022-12-05T00:12:39.362Z,1000.5
2022-12-05T00:15:07.642Z,1000.5
2022-12-05T00:18:12.935Z,1000.5
2022-12-05T00:20:41.153Z,1000.6
2022-12-05T00:23:09.379Z,1000.4
2022-12-05T00:26:14.716Z,1000.4
2022-12-05T00:29:20.037Z,1000.5
2022-12-05T00:31:40.184Z,1000.5
2022-12-05T00:34:08.357Z,1000.6
2022-12-05T00:37:13.679Z,1000.6
2022-12-05T00:39:41.956Z,1000.6
2022-12-05T00:42:10.138Z,1000.6
2022-12-05T00:45:15.474Z,1000.6
2022-12-05T00:47:43.695Z,1000.6
2022-12-05T00:50:11.974Z,1000.5
2022-12-05T00:52:40.178Z,1000.6
2022-12-05T00:55:08.420Z,1000.6
2022-12-05T00:58:13.736Z,1000.7
2022-12-05T01:00:41.990Z,1000.7
2022-12-05T01:03:10.297Z,1000.7
2022-12-05T01:06:15.564Z,1000.7
2022-12-05T01:08:43.779Z,1000.7
2022-12-05T01:11:12.011Z,1000.7
2022-12-05T01:13:40.275Z,1000.1
2022-12-05T01:16:45.697Z,1000.8
2022-12-05T01:19:13.967Z,1000.8
2022-12-05T01:21:42.103Z,1000.8
2022-12-05T01:24:10.312Z,1000.9
2022-12-05T01:27:15.635Z,1000.9
2022-12-05T01:30:12.800Z,1001
2022-12-05T01:32:40.992Z,1000.9
2022-12-05T01:35:09.247Z,1000.8
2022-12-05T01:38:14.572Z,1001
2022-12-05T01:40:42.818Z,1001
2022-12-05T01:43:11.048Z,1000.9
2022-12-05T01:46:16.486Z,1001
2022-12-05T01:48:44.654Z,1000.9
2022-12-05T01:51:12.878Z,1000.9
2022-12-05T01:53:41.108Z,1001
2022-12-05T01:56:09.382Z,1000.8
2022-12-05T01:59:14.683Z,1001
2022-12-05T02:01:42.974Z,1001
2022-12-05T02:04:11.192Z,1001.1
2022-12-05T02:07:16.499Z,1001.1
2022-12-05T02:09:44.722Z,1001.1
2022-12-05T02:12:13.007Z,1001.1
2022-12-05T02:14:41.204Z,1000.8
2022-12-05T02:17:46.527Z,1001
2022-12-05T02:20:14.755Z,1000.9
2022-12-05T02:22:42.999Z,1000.9
2022-12-05T02:25:11.266Z,1000.8
2022-12-05T02:28:16.580Z,1000.8
2022-12-05T02:30:36.680Z,1000.8
2022-12-05T02:33:04.858Z,1000.9
2022-12-05T02:36:10.177Z,1001.1
2022-12-05T02:39:15.523Z,1001.1
2022-12-05T02:41:43.775Z,1001.1
2022-12-05T02:44:11.970Z,1001.1
2022-12-05T02:46:40.257Z,1001
2022-12-05T02:49:45.567Z,1001.3
2022-12-05T02:52:13.789Z,1001.3
2022-12-05T02:54:42.020Z,1001.3
2022-12-05T02:57:10.261Z,1001.5
2022-12-05T03:00:15.657Z,1001.6
2022-12-05T03:02:43.896Z,1001.6
2022-12-05T03:05:12.135Z,1001.6
2022-12-05T03:07:40.440Z,1001.6
2022-12-05T03:10:08.626Z,1001.6
2022-12-05T03:13:13.919Z,1001.6
2022-12-05T03:15:42.136Z,1001.6
2022-12-05T03:18:10.377Z,1001.6
2022-12-05T03:21:15.688Z,1001.6
2022-12-05T03:23:43.928Z,1001.6
2022-12-05T03:26:12.226Z,1001.6
2022-12-05T03:28:40.426Z,1001.6
2022-12-05T03:31:00.578Z,1001.7
2022-12-05T03:34:05.781Z,1001.7
2022-12-05T03:37:11.181Z,1001.7
2022-12-05T03:39:39.397Z,1001.7
2022-12-05T03:42:07.607Z,1001.8
2022-12-05T03:45:12.956Z,1001.7
2022-12-05T03:47:41.175Z,1001.7
2022-12-05T03:50:09.407Z,1001.7
2022-12-05T03:53:20.815Z,1001.7
2022-12-05T03:55:42.962Z,1001.8
2022-12-05T03:58:11.203Z,1001.9
2022-12-05T04:00:39.495Z,1001.9
2022-12-05T04:03:07.748Z,1001.9
2022-12-05T04:06:13.102Z,1001.8
2022-12-05T04:08:41.267Z,1001.3
2022-12-05T04:11:09.478Z,1001.8
2022-12-05T04:14:51.912Z,1001.7
2022-12-05T04:17:57.183Z,1001.7
2022-12-05T04:21:02.529Z,1001.7
2022-12-05T04:24:07.811Z,1001.7
2022-12-05T04:27:13.096Z,1001.7
2022-12-05T04:30:47.376Z,1001.7
2022-12-05T04:33:15.534Z,1001.7
2022-12-05T04:35:43.775Z,1001.8
2022-12-05T04:38:12.055Z,1001.8
2022-12-05T04:40:40.266Z,1001.7
2022-12-05T04:43:45.579Z,1001.6
2022-12-05T04:46:13.846Z,1001.7
2022-12-05T04:48:42.137Z,1001.7
2022-12-05T04:51:10.327Z,1001.7
2022-12-05T04:54:15.639Z,1001.6
2022-12-05T04:56:43.900Z,1001.6
2022-12-05T04:59:12.163Z,1001.7
2022-12-05T05:01:40.477Z,1001.7
2022-12-05T05:04:08.627Z,1001.7
2022-12-05T05:07:13.916Z,1001.7
2022-12-05T05:09:42.183Z,1001.7
2022-12-05T05:12:13.213Z,1001.7
2022-12-05T05:15:15.747Z,1001.8
2022-12-05T05:17:43.993Z,1001.8
2022-12-05T05:20:14.395Z,1001.8
2022-12-05T05:22:40.448Z,1001.9
2022-12-05T05:25:08.734Z,1001.9
2022-12-05T05:28:14.031Z,1002.1
2022-12-05T05:31:19.409Z,1002.1
2022-12-05T05:33:39.403Z,1002.1
2022-12-05T05:36:07.666Z,1002.2
2022-12-05T05:39:12.971Z,1002.2
2022-12-05T05:41:41.208Z,1001.7
2022-12-05T05:44:46.551Z,1002.3
2022-12-05T05:47:14.783Z,1002.3
2022-12-05T05:49:43.022Z,1002.3
2022-12-05T05:52:11.266Z,1002.2
2022-12-05T05:55:16.656Z,1002.2
2022-12-05T05:57:44.868Z,1002.2
2022-12-05T06:00:13.142Z,1002.2
2022-12-05T06:02:41.410Z,1002.3
2022-12-05T06:05:09.577Z,1002.2
2022-12-05T06:08:51.970Z,1002.3
2022-12-05T06:11:57.267Z,1002.3
2022-12-05T06:15:02.567Z,1002.3
2022-12-05T06:18:07.900Z,1002.4
2022-12-05T06:21:16.108Z,1002.4
2022-12-05T06:23:41.424Z,1002.4
2022-12-05T06:26:09.702Z,1002.5
2022-12-05T06:29:14.959Z,1002.4
2022-12-05T06:32:12.138Z,1002.5
2022-12-05T06:34:40.354Z,1002.5
2022-12-05T06:37:08.585Z,1002.6
2022-12-05T06:40:13.917Z,1002.5
2022-12-05T06:42:42.155Z,1002.5
2022-12-05T06:45:10.390Z,1002.6
2022-12-05T06:48:15.741Z,1002.5
2022-12-05T06:50:43.936Z,1002.5
2022-12-05T06:53:12.271Z,1002.6
2022-12-05T06:55:40.442Z,1002.6
2022-12-05T06:58:08.701Z,1002.6
2022-12-05T07:01:14.082Z,1002.7
2022-12-05T07:03:42.213Z,1002.8
2022-12-05T07:06:10.467Z,1002.9
2022-12-05T07:09:16.919Z,1002.9
2022-12-05T07:11:44.066Z,1002.9
2022-12-05T07:14:24.840Z,1002.9
2022-12-05T07:16:40.640Z,1002.9
2022-12-05T07:19:08.819Z,1002.9
2022-12-05T07:22:16.040Z,1002.9
2022-12-05T07:24:42.365Z,1002.9
2022-12-05T07:27:10.589Z,1002.9
2022-12-05T07:30:15.934Z,1002.9
2022-12-05T07:32:35.951Z,1003
2022-12-05T07:35:04.224Z,1003
2022-12-05T07:38:46.590Z,1002.3
2022-12-05T07:41:51.864Z,1002.7
2022-12-05T07:44:57.213Z,1002.7
2022-12-05T07:48:02.616Z,1002.7
2022-12-05T07:51:07.830Z,1002.7
2022-12-05T07:54:13.175Z,1002.8
2022-12-05T07:56:46.261Z,1002.9
2022-12-05T07:59:09.600Z,1003
2022-12-05T08:02:52.052Z,1003.1
2022-12-05T08:05:57.368Z,1003.1
2022-12-05T08:09:02.616Z,1003.1
2022-12-05T08:12:08.903Z,1003.1
2022-12-05T08:15:13.196Z,1003.2
2022-12-05T08:17:41.454Z,1003.2
2022-12-05T08:20:09.742Z,1003.3
2022-12-05T08:23:52.100Z,1003.2
2022-12-05T08:26:57.417Z,1003.2
2022-12-05T08:30:02.753Z,1003.1
2022-12-05T08:32:59.859Z,1003.2
2022-12-05T08:36:05.132Z,1003.4
2022-12-05T08:39:10.472Z,1003.5
2022-12-05T08:42:15.813Z,1003.5
2022-12-05T08:44:44.080Z,1003.5
2022-12-05T08:47:12.274Z,1003.6
2022-12-05T08:49:40.528Z,1003.6
2022-12-05T08:52:08.775Z,1003.6
2022-12-05T08:55:14.108Z,1003.6
2022-12-05T08:57:42.337Z,1003.6
2022-12-05T09:00:10.664Z,1003.6
2022-12-05T09:03:15.892Z,1003.7
2022-12-05T09:05:44.174Z,1003.7
2022-12-05T09:08:12.427Z,1003.8
2022-12-05T09:10:40.621Z,1003.8
2022-12-05T09:13:08.860Z,1003.9
2022-12-05T09:16:14.237Z,1003.9
2022-12-05T09:18:42.426Z,1003.9
2022-12-05T09:21:10.666Z,1003.9
2022-12-05T09:24:15.976Z,1004
2022-12-05T09:26:44.217Z,1004
2022-12-05T09:29:16.547Z,1004
2022-12-05T09:31:40.825Z,1004
2022-12-05T09:34:00.732Z,1004
2022-12-05T09:37:23.042Z,1003.9
2022-12-05T09:40:11.383Z,1004
2022-12-05T09:43:16.688Z,1004
2022-12-05T09:45:44.918Z,1004
2022-12-05T09:48:13.190Z,1004
2022-12-05T09:50:41.430Z,1004
2022-12-05T09:53:09.676Z,1003.9
2022-12-05T09:56:14.994Z,1004
2022-12-05T09:58:43.245Z,1003.9
2022-12-05T10:01:11.509Z,1003.9
2022-12-05T10:03:39.719Z,1004
2022-12-05T10:06:07.964Z,1003.9
2022-12-05T10:09:13.350Z,1003.9
2022-12-05T10:11:41.563Z,1003.9
2022-12-05T10:14:09.784Z,1003.9
2022-12-05T10:17:15.099Z,1003.9
2022-12-05T10:19:43.397Z,1003.9
2022-12-05T10:22:14.753Z,1003.9
2022-12-05T10:24:39.844Z,1003.9
2022-12-05T10:27:08.133Z,1003.9
2022-12-05T10:30:13.508Z,1003.9
2022-12-05T10:33:10.516Z,1004
2022-12-05T10:36:15.849Z,1003.9
2022-12-05T10:38:44.103Z,1003.9
2022-12-05T10:41:12.349Z,1003.9
2022-12-05T10:43:40.610Z,1003.9
2022-12-05T10:46:45.923Z,1004
2022-12-05T10:49:14.155Z,1004
2022-12-05T10:51:42.423Z,1004
2022-12-05T10:54:10.586Z,1004
2022-12-05T10:57:15.938Z,1004
2022-12-05T10:59:44.175Z,1004
2022-12-05T11:02:12.477Z,1004
2022-12-05T11:04:40.660Z,1004
2022-12-05T11:07:08.899Z,1004
2022-12-05T11:10:14.233Z,1004
2022-12-05T11:12:42.469Z,1004
2022-12-05T11:15:52.343Z,1004
2022-12-05T11:18:16.051Z,1004
2022-12-05T11:20:44.292Z,1004
2022-12-05T11:23:12.579Z,1004
2022-12-05T11:25:40.817Z,1004
2022-12-05T11:28:09.019Z,1004
2022-12-05T11:31:14.447Z,1004
2022-12-05T11:34:11.420Z,1004
2022-12-05T11:36:39.720Z,1004
2022-12-05T11:39:07.948Z,1003.9
2022-12-05T11:42:13.280Z,1003.9
2022-12-05T11:44:41.488Z,1003.9
2022-12-05T11:47:09.812Z,1003.9
2022-12-05T11:50:15.079Z,1003.9
2022-12-05T11:52:43.304Z,1003.9
2022-12-05T11:55:11.540Z,1003.9
2022-12-05T11:57:39.820Z,1003.9
2022-12-05T12:00:08.071Z,1003.9
2022-12-05T12:03:13.450Z,1003.9
2022-12-05T12:05:41.624Z,1003.9
2022-12-05T12:08:09.887Z,1003.9
2022-12-05T12:11:15.184Z,1003.8
2022-12-05T12:13:43.439Z,1003.8
2022-12-05T12:16:11.740Z,1003.8
2022-12-05T12:19:16.970Z,1003.8
2022-12-05T12:21:45.247Z,1003.8
2022-12-05T12:24:13.464Z,1003.8
2022-12-05T12:26:41.728Z,1003.8
2022-12-05T12:29:09.933Z,1003.8
2022-12-05T12:32:15.336Z,1003.8
2022-12-05T12:34:35.321Z,1003.8
2022-12-05T12:37:03.598Z,1003.7
2022-12-05T12:40:08.861Z,1003.7
2022-12-05T12:43:25.440Z,1003.7
2022-12-05T12:45:42.557Z,1003.7
2022-12-05T12:48:10.647Z,1003.8
2022-12-05T12:51:16.001Z,1003.8
2022-12-05T12:53:44.260Z,1003.8
2022-12-05T12:56:12.475Z,1003.9
2022-12-05T12:58:40.754Z,1003.9
2022-12-05T13:01:09.036Z,1003.9
2022-12-05T13:04:14.290Z,1003.9
2022-12-05T13:06:42.564Z,1003.9
2022-12-05T13:09:10.751Z,1003.9
2022-12-05T13:12:16.076Z,1003.9
2022-12-05T13:14:44.353Z,1003.9
2022-12-05T13:17:12.656Z,1003.8
2022-12-05T13:19:40.838Z,1003.9
2022-12-05T13:22:09.130Z,1003.8
2022-12-05T13:25:14.457Z,1003.9
2022-12-05T13:27:42.654Z,1003.9
2022-12-05T13:30:13.640Z,1003.9
2022-12-05T13:33:16.191Z,1004
2022-12-05T13:36:50.358Z,1003.9
2022-12-05T13:39:55.779Z,1003.9
2022-12-05T13:43:00.990Z,1004
2022-12-05T13:46:06.387Z,1004
2022-12-05T13:49:14.324Z,1004.1
2022-12-05T13:51:39.885Z,1004.1
2022-12-05T13:54:08.206Z,1004.1
2022-12-05T13:57:13.414Z,1004.1
2022-12-05T13:59:41.671Z,1004.2
2022-12-05T14:02:09.917Z,1004.2
2022-12-05T14:05:15.225Z,1004.1
2022-12-05T14:07:43.640Z,1004.2
2022-12-05T14:10:11.756Z,1004.1
2022-12-05T14:12:39.989Z,1004.1
2022-12-05T14:15:08.234Z,1004.2
2022-12-05T14:18:13.682Z,1004.2
2022-12-05T14:20:41.870Z,1004.2
2022-12-05T14:23:10.055Z,1004.2
2022-12-05T14:26:15.375Z,1004.3
2022-12-05T14:28:43.565Z,1004.3
2022-12-05T14:31:11.846Z,1004.3
2022-12-05T14:33:40.047Z,1004.3
2022-12-05T14:36:00.095Z,1004.3
2022-12-05T14:39:05.461Z,1004.2
2022-12-05T14:42:10.789Z,1004.3
2022-12-05T14:45:16.155Z,1004.3
2022-12-05T14:47:44.358Z,1004.3
2022-12-05T14:50:12.598Z,1004.2
2022-12-05T14:52:40.789Z,1004.2
2022-12-05T14:55:09.035Z,1004.3
2022-12-05T14:58:14.305Z,1004.3
2022-12-05T15:00:46.579Z,1004.3
2022-12-05T15:03:10.804Z,1004.3
2022-12-05T15:06:16.184Z,1004.3
2022-12-05T15:08:44.468Z,1004.2
2022-12-05T15:11:12.779Z,1004.2
2022-12-05T15:13:40.933Z,1004.2
2022-12-05T15:16:09.210Z,1004.1
2022-12-05T15:19:14.496Z,1004.1
2022-12-05T15:21:42.714Z,1004.1
2022-12-05T15:24:10.919Z,1004.1
2022-12-05T15:27:16.348Z,1004.2
2022-12-05T15:29:44.522Z,1004.2
2022-12-05T15:34:03.984Z,1004.2
2022-12-05T15:37:01.053Z,1004.2
2022-12-05T15:40:06.395Z,1004.3
2022-12-05T15:43:11.653Z,1004.2
2022-12-05T15:45:39.933Z,1004.2
2022-12-05T15:48:08.162Z,1004.2
2022-12-05T15:51:13.430Z,1004.3
2022-12-05T15:53:41.705Z,1004.2
2022-12-05T15:56:09.990Z,1004.2
2022-12-05T15:59:15.297Z,1004.3
2022-12-05T16:01:43.613Z,1004.3
2022-12-05T16:04:11.792Z,1004.3
2022-12-05T16:06:40.064Z,1004.3
2022-12-05T16:09:11.477Z,1004.3
2022-12-05T16:12:13.601Z,1004.3
2022-12-05T16:15:00.225Z,1004.3
2022-12-05T16:17:10.102Z,1004.3
2022-12-05T16:20:15.368Z,1004.3
2022-12-05T16:22:43.626Z,1004.3
2022-12-05T16:25:11.851Z,1004.3
2022-12-05T16:27:40.150Z,1004.3
2022-12-05T16:30:08.356Z,1004.4
2022-12-05T16:33:13.670Z,1004.5
2022-12-05T16:35:41.936Z,1004.4
2022-12-05T16:38:10.165Z,1004.5
2022-12-05T16:41:15.462Z,1004.5
2022-12-05T16:43:43.729Z,1004.5
2022-12-05T16:46:03.805Z,1004.5
2022-12-05T16:49:09.097Z,1004.3
2022-12-05T16:52:14.401Z,1004.6
2022-12-05T16:54:42.662Z,1004.6
2022-12-05T16:57:10.909Z,1004.5
2022-12-05T17:00:16.392Z,1004.6
2022-12-05T17:02:44.432Z,1004.5
2022-12-05T17:05:12.725Z,1004.6
2022-12-05T17:07:40.980Z,1004.6
2022-12-05T17:10:09.228Z,1004.4
2022-12-05T17:13:14.536Z,1004.7
2022-12-05T17:15:42.749Z,1004.7
2022-12-05T17:18:11.017Z,1004.7
2022-12-05T17:21:16.293Z,1004.7
2022-12-05T17:23:47.662Z,1004.7
2022-12-05T17:26:12.795Z,1004.6
2022-12-05T17:28:41.020Z,1004.6
2022-12-05T17:31:09.361Z,1004.5
2022-12-05T17:34:14.602Z,1004.7
2022-12-05T17:36:42.862Z,1004.6
2022-12-05T17:39:11.088Z,1004.6
2022-12-05T17:41:39.360Z,1004.6
2022-12-05T17:44:07.607Z,1004.6
2022-12-05T17:47:12.939Z,1004.7
2022-12-05T17:49:41.124Z,1004.7
2022-12-05T17:52:22.279Z,1004.6
2022-12-05T17:55:14.699Z,1004.7
2022-12-05T17:57:34.779Z,1004.7
2022-12-05T18:00:03.016Z,1004.6
2022-12-05T18:03:08.373Z,1004.7
2022-12-05T18:06:13.622Z,1004.7
2022-12-05T18:08:41.842Z,1004.6
2022-12-05T18:11:10.101Z,1004.6
2022-12-05T18:14:15.440Z,1004.7
2022-12-05T18:16:43.710Z,1004.7
2022-12-05T18:19:11.921Z,1004.7
2022-12-05T18:22:18.627Z,1004.7
2022-12-05T18:24:45.485Z,1004.7
2022-12-05T18:27:13.742Z,1004.7
2022-12-05T18:29:41.963Z,1004.7
2022-12-05T18:32:10.292Z,1004.7
2022-12-05T18:35:15.552Z,1004.7
2022-12-05T18:37:43.799Z,1004.7
2022-12-05T18:40:12.079Z,1004.8
2022-12-05T18:42:40.290Z,1003
2022-12-05T18:45:45.575Z,1004.8
2022-12-05T18:50:42.100Z,1004.8
2022-12-05T18:53:10.305Z,1004.7
2022-12-05T18:56:23.080Z,1004.7
2022-12-05T18:58:43.885Z,1004.7
2022-12-05T19:01:12.204Z,1004.7
2022-12-05T19:03:40.362Z,1004.7
2022-12-05T19:06:08.654Z,1004.7
2022-12-05T19:09:05.740Z,1004.7
2022-12-05T19:12:11.031Z,1004.6
2022-12-05T19:15:16.367Z,1004.6
2022-12-05T19:17:44.602Z,1004.6
2022-12-05T19:20:12.837Z,1004.6
2022-12-05T19:22:41.087Z,1004.6
2022-12-05T19:25:09.340Z,1004.5
2022-12-05T19:28:14.636Z,1004.6
2022-12-05T19:30:42.900Z,1004.7
2022-12-05T19:33:11.126Z,1004.8
2022-12-05T19:35:39.425Z,1004.8
2022-12-05T19:38:07.631Z,1004.8
2022-12-05T19:41:12.970Z,1004.8
2022-12-05T19:43:41.182Z,1004.8
2022-12-05T19:46:09.505Z,1004.8
2022-12-05T19:49:14.752Z,1004.8
2022-12-05T19:51:43.031Z,1004.8
2022-12-05T19:54:11.239Z,1004.7
2022-12-05T19:56:39.505Z,1004.8
2022-12-05T19:59:07.760Z,1004.7
2022-12-05T20:02:13.095Z,1004.8
2022-12-05T20:04:41.284Z,1004.8
2022-12-05T20:07:09.530Z,1004.8
2022-12-05T20:10:43.770Z,1004.7
2022-12-05T20:13:38.399Z,1004.7
2022-12-05T20:15:40.235Z,1004.7
2022-12-05T20:18:45.523Z,1004.7
2022-12-05T20:21:13.780Z,1004.7
2022-12-05T20:23:42.048Z,1004.7
2022-12-05T20:26:10.283Z,1004.7
2022-12-05T20:29:15.617Z,1004.7
2022-12-05T20:31:43.846Z,1004.7
2022-12-05T20:34:12.118Z,1004.8
2022-12-05T20:36:40.346Z,1004.8
2022-12-05T20:39:45.662Z,1004.7
2022-12-05T20:42:13.979Z,1004.8
2022-12-05T20:44:42.128Z,1004.8
2022-12-05T20:47:10.372Z,1004.8
2022-12-05T20:50:15.694Z,1004.8
2022-12-05T20:52:46.707Z,1004.8
2022-12-05T20:55:12.211Z,1004.8
2022-12-05T20:57:40.423Z,1004.8
2022-12-05T21:00:08.665Z,1004.8
2022-12-05T21:03:17.083Z,1004.8
2022-12-05T21:05:42.214Z,1004.8
2022-12-05T21:08:02.296Z,1004.7
2022-12-05T21:11:07.619Z,1004.7
2022-12-05T21:14:12.924Z,1004.7
2022-12-05T21:16:41.153Z,1004.7
2022-12-05T21:19:09.375Z,1004.7
2022-12-05T21:22:14.746Z,1004.7
2022-12-05T21:24:42.971Z,1004.7
2022-12-05T21:27:11.191Z,1004.7
2022-12-05T21:29:39.488Z,1004.7
2022-12-05T21:32:07.673Z,1004.7
2022-12-05T21:35:13.023Z,1004.7
2022-12-05T21:37:41.239Z,1004.8
2022-12-05T21:40:46.570Z,1004.6
2022-12-05T21:43:14.809Z,1004.7
2022-12-05T21:45:45.018Z,1004.6
2022-12-05T21:48:11.285Z,1004.6
2022-12-05T21:51:16.625Z,1004.6
2022-12-05T21:53:44.858Z,1004.6
2022-12-05T21:56:13.091Z,1004.6
2022-12-05T21:58:42.455Z,1004.6
2022-12-05T22:01:09.671Z,1004.6
2022-12-05T22:04:51.995Z,1004.6
2022-12-05T22:09:03.259Z,1004.6
2022-12-05T22:12:08.513Z,1004.7
2022-12-05T22:15:13.838Z,1004.7
2022-12-05T22:17:42.086Z,1004.7
2022-12-05T22:20:10.340Z,1004.8
2022-12-05T22:23:16.966Z,1004.7
2022-12-05T22:25:43.897Z,1004.7
2022-12-05T22:28:12.179Z,1004.7
2022-12-05T22:30:40.418Z,1004.7
2022-12-05T22:33:08.619Z,1004.7
2022-12-05T22:36:13.969Z,1004.7
2022-12-05T22:38:42.205Z,1004.7
2022-12-05T22:41:10.462Z,1004.7
2022-12-05T22:44:15.778Z,1004.7
2022-12-05T22:46:44.067Z,1004.7
2022-12-05T22:49:12.261Z,1004.7
2022-12-05T22:51:40.484Z,1004.7
2022-12-05T22:54:08.739Z,1004.7
2022-12-05T22:57:14.035Z,1004.7
2022-12-05T22:59:42.305Z,1004.7
2022-12-05T23:02:10.517Z,1004.7
2022-12-05T23:05:15.871Z,1004.6
2022-12-05T23:07:44.152Z,1004.6
2022-12-05T23:10:04.160Z,1004.6
2022-12-05T23:13:09.445Z,1004.4
2022-12-05T23:16:14.799Z,1004.5
2022-12-05T23:18:43.047Z,1004.6
2022-12-05T23:21:11.247Z,1004.5
2022-12-05T23:23:39.514Z,1004.5
2022-12-05T23:26:07.768Z,1004.5
2022-12-05T23:31:04.512Z,1004.5
2022-12-05T23:34:09.543Z,1004.5
2022-12-05T23:37:51.968Z,1004.5
2022-12-05T23:40:57.301Z,1004.5
2022-12-05T23:44:02.539Z,1004.4
2022-12-05T23:47:07.927Z,1004.4
2022-12-05T23:50:13.193Z,1004.4
2022-12-05T23:52:41.436Z,1004.3
2022-12-05T23:55:09.653Z,1004.4
2022-12-05T23:58:14.977Z,1004.4
